Aeroporto :
LOGIN :

Iscrizione | Disclaimer

   EN    FR    IT 

 










Sommario :    VFR   VFR Marginale   IFR   IFR Intensivo   IFR Molto Intensivo
Visibilità : 
Base nubi : 
>= 8 km
>= 3000ft
5 / 8 km
1000 / 3000 ft
1500m / 5 km
500 / 1000 ft
800 / 1500m
200 / 500 ft
< 800m
< 200 ft
Simboli :   Temporali  Nebbia  Neve Forte  Precipitazioni Forti  Vento > 20 kt
SIGMETs :   Varie  Temporali  Ghiacco  Turbolenza  Onda orograficha  Ceneri Vulcaniche






- Altitudine del aeroporto : 989 ft
- Codice IATA : TRN


LIMF - Torino Caselle

ULTIMO METAR :
  • 250550Z 35004KT 3000 BR BKN015 09/08 Q1013

METARs OBSOLETI :
  • 250520Z 11002KT 3000 BR BKN015 09/08 Q1013
  • 250450Z 03002KT 3000 BR OVC015 09/08 Q1013
  • 250420Z VRB01KT 3000 BR OVC015 09/08 Q1013
  • 250350Z 04002KT 3000 BR OVC015 09/08 Q1013
  • 250320Z 01003KT 3000 BR BKN015 OVC030 09/08 Q1013

TAF TAF LIMF
Valido dal 25 a 06 ore il 26 a 06 ore UTC


250500Z 2506/2606 VRB05KT 4000 BR BKN015
TEMPO 2506/2508 1500 BCFG
BECMG 2508/2510 7000 BKN035
BECMG 2600/2603 28015KT



MetMap, La meteo Aeronautica in un colpo d'occhio ! - Copyright ORBIFLY Dicembre 2007 - Disclaimer

ORBIFLY MET'MAP TEAM :

Programmazione e sviluppo : Alexandra Zaïnal
Concezione : Baudouin d'Aumeries
Aiuto per la programmazione : Marc-Olivier Méhu
Supporto tecnico e logistico : Manuel Goepfert
Aiuto per la traduzione : Arnaldo La Scala

Contatto : metmap@orbifly.com




FONTI E CREDITI :

   NOAA